Time;durP1;ratioP1;P1;durP2;ratioP2;P2;SDS_P1;SDS_P2;PMS_P1;PMS_P2;Temp;Humidity;BMP_temperature;BMP_pressure;BME280_temperature;BME280_humidity;BME280_pressure;Samples;Min_cycle;Max_cycle;Signal;HPM_P1;HPM_P2
2023/08/05 00:00:09;;;;;;;4.83;2.70;;;13.40;99.90;;;;;;5016707;28;20231;-81
2023/08/05 00:02:34;;;;;;;3.37;2.53;;;13.40;99.90;;;;;;5016520;28;20181;-80
2023/08/05 00:05:00;;;;;;;5.90;2.30;;;13.40;99.90;;;;;;5013628;28;20211;-81
2023/08/05 00:07:26;;;;;;;10.43;2.50;;;13.40;99.90;;;;;;5016032;28;20196;-81
2023/08/05 00:09:51;;;;;;;7.00;2.83;;;13.40;99.90;;;;;;5015679;28;20262;-81
2023/08/05 00:12:17;;;;;;;6.90;2.90;;;13.40;99.90;;;;;;5014372;28;20176;-81
2023/08/05 00:14:42;;;;;;;7.77;3.07;;;13.40;99.90;;;;;;5011977;28;20194;-80
2023/08/05 00:17:08;;;;;;;3.47;2.60;;;13.40;99.90;;;;;;5011525;28;20243;-81
2023/08/05 00:19:33;;;;;;;5.93;2.77;;;13.40;99.90;;;;;;5016466;28;20177;-81
2023/08/05 00:21:59;;;;;;;8.50;2.90;;;13.40;99.90;;;;;;5015593;28;20243;-81
2023/08/05 00:24:24;;;;;;;6.73;2.60;;;13.40;99.90;;;;;;5014640;28;20238;-81
2023/08/05 00:26:50;;;;;;;6.37;3.23;;;13.40;99.90;;;;;;5016085;28;20276;-81
2023/08/05 00:29:15;;;;;;;5.13;2.70;;;13.40;99.90;;;;;;5014254;28;20216;-81
2023/08/05 00:31:41;;;;;;;10.40;2.60;;;13.40;99.90;;;;;;5015007;28;20207;-80
2023/08/05 00:34:06;;;;;;;5.83;2.23;;;13.50;99.90;;;;;;5016225;28;20204;-81
2023/08/05 00:36:32;;;;;;;4.37;2.70;;;13.50;99.90;;;;;;4997812;28;20610;-80
2023/08/05 00:38:57;;;;;;;3.87;2.80;;;13.50;99.90;;;;;;4997326;28;20220;-81
2023/08/05 00:41:23;;;;;;;7.90;2.80;;;13.60;99.90;;;;;;4997303;28;20201;-81
2023/08/05 00:43:48;;;;;;;17.40;2.67;;;13.50;99.90;;;;;;4996566;28;20173;-81
2023/08/05 00:46:14;;;;;;;6.53;2.57;;;13.50;99.90;;;;;;5011744;28;20215;-81
2023/08/05 00:48:40;;;;;;;9.20;2.40;;;13.50;99.90;;;;;;5017031;28;20314;-81
2023/08/05 00:51:07;;;;;;;7.27;2.20;;;13.50;99.90;;;;;;5024811;28;20208;-81
2023/08/05 00:53:35;;;;;;;5.93;2.20;;;13.50;99.90;;;;;;5024206;28;20196;-81
2023/08/05 00:56:01;;;;;;;6.57;2.47;;;13.50;99.90;;;;;;5014630;28;20263;-81
2023/08/05 00:58:28;;;;;;;8.60;2.20;;;13.50;99.90;;;;;;5015008;28;20211;-81
2023/08/05 01:00:54;;;;;;;5.63;2.30;;;13.50;99.90;;;;;;5013537;28;20196;-81
2023/08/05 01:03:20;;;;;;;9.90;2.30;;;13.50;99.90;;;;;;5015210;28;20592;-81
2023/08/05 01:05:49;;;;;;;5.10;1.97;;;13.40;99.90;;;;;;5012564;28;20652;-81
2023/08/05 01:08:16;;;;;;;6.77;2.60;;;13.40;99.90;;;;;;5013289;28;20200;-81
2023/08/05 01:10:41;;;;;;;8.20;2.43;;;13.40;99.90;;;;;;5014385;28;20299;-80
2023/08/05 01:13:07;;;;;;;7.33;2.23;;;13.50;99.90;;;;;;5014174;28;20177;-81
2023/08/05 01:15:32;;;;;;;6.93;1.63;;;13.50;99.90;;;;;;5012748;28;20579;-81
2023/08/05 01:18:01;;;;;;;5.43;2.20;;;13.40;99.90;;;;;;5014155;28;20216;-81
2023/08/05 01:20:39;;;;;;;9.83;2.23;;;13.50;99.90;;;;;;5013487;28;20208;-81
2023/08/05 01:23:20;;;;;;;7.17;2.20;;;13.50;99.90;;;;;;5015180;28;20172;-81
2023/08/05 01:25:46;;;;;;;7.40;2.13;;;13.40;99.90;;;;;;5014399;28;20177;-81
2023/08/05 01:28:12;;;;;;;9.90;2.93;;;13.40;99.90;;;;;;5014781;28;20177;-81
2023/08/05 01:30:40;;;;;;;6.07;2.17;;;13.40;99.90;;;;;;5015258;28;20710;-81
2023/08/05 01:33:07;;;;;;;5.63;2.93;;;13.30;99.90;;;;;;5015280;28;20191;-81
2023/08/05 01:35:32;;;;;;;7.33;2.63;;;13.30;99.90;;;;;;5014241;28;20226;-81
2023/08/05 01:37:58;;;;;;;6.63;2.77;;;13.30;99.90;;;;;;5013950;28;20536;-81
2023/08/05 01:40:28;;;;;;;7.43;2.63;;;13.30;99.90;;;;;;5015493;28;20652;-81
2023/08/05 01:42:58;;;;;;;7.03;2.40;;;13.20;99.90;;;;;;5014301;28;20572;-81
2023/08/05 01:45:24;;;;;;;5.37;2.23;;;13.20;99.90;;;;;;5014237;28;20541;-81
2023/08/05 01:47:50;;;;;;;5.30;2.53;;;13.20;99.90;;;;;;5013645;28;20310;-81
2023/08/05 01:50:15;;;;;;;11.67;2.30;;;13.30;99.90;;;;;;5014347;28;20251;-81
2023/08/05 01:52:41;;;;;;;13.07;2.63;;;13.30;99.90;;;;;;5014496;28;20673;-80
2023/08/05 01:55:06;;;;;;;8.17;3.00;;;13.20;99.90;;;;;;5012333;28;20272;-81
2023/08/05 01:57:32;;;;;;;4.27;2.30;;;13.20;99.90;;;;;;5013520;28;20263;-81
2023/08/05 01:59:58;;;;;;;7.57;2.30;;;13.10;99.90;;;;;;5012035;28;20193;-81
2023/08/05 02:02:23;;;;;;;7.80;2.70;;;13.10;99.90;;;;;;5014184;28;20641;-81
2023/08/05 02:04:49;;;;;;;8.13;2.50;;;13.00;99.90;;;;;;5013484;28;20193;-80
2023/08/05 02:07:14;;;;;;;3.67;2.57;;;13.00;99.90;;;;;;5018033;28;20260;-81
2023/08/05 02:09:40;;;;;;;10.27;2.90;;;13.00;99.90;;;;;;5017597;28;20194;-80
2023/08/05 02:12:05;;;;;;;5.63;2.60;;;12.90;99.90;;;;;;5016000;28;20212;-81
2023/08/05 02:14:31;;;;;;;9.30;2.40;;;12.90;99.90;;;;;;5015057;28;20180;-80
2023/08/05 02:16:57;;;;;;;8.80;2.73;;;12.90;99.90;;;;;;5015907;28;20613;-81
2023/08/05 02:19:22;;;;;;;11.13;2.63;;;12.80;99.90;;;;;;5017483;28;20191;-81
2023/08/05 02:21:48;;;;;;;5.83;2.37;;;12.90;99.90;;;;;;5016513;28;20583;-81
2023/08/05 02:24:13;;;;;;;5.63;2.70;;;12.90;99.90;;;;;;5017006;28;20663;-81
2023/08/05 02:26:39;;;;;;;8.93;2.30;;;12.80;99.90;;;;;;5017029;28;20620;-81
2023/08/05 02:29:04;;;;;;;10.50;2.20;;;12.80;99.90;;;;;;5016253;28;20204;-81
2023/08/05 02:31:30;;;;;;;7.90;2.40;;;12.80;99.90;;;;;;5018303;28;20185;-81
2023/08/05 02:33:55;;;;;;;5.50;2.30;;;12.90;99.90;;;;;;5016682;28;20216;-81
2023/08/05 02:36:21;;;;;;;6.23;2.20;;;12.80;99.90;;;;;;5015818;28;20196;-81
2023/08/05 02:38:47;;;;;;;3.37;2.10;;;12.90;99.90;;;;;;5018276;28;20223;-81
2023/08/05 02:41:12;;;;;;;10.13;2.20;;;12.90;99.90;;;;;;5017345;28;20193;-81
2023/08/05 02:43:38;;;;;;;8.20;2.43;;;12.90;99.90;;;;;;5017960;28;20181;-80
2023/08/05 02:46:04;;;;;;;4.17;2.83;;;12.80;99.90;;;;;;5014054;28;20188;-81
2023/08/05 02:48:29;;;;;;;13.00;3.40;;;12.80;99.90;;;;;;5017487;28;20173;-81
2023/08/05 02:50:55;;;;;;;6.53;2.83;;;12.90;99.90;;;;;;5017891;28;20331;-81
2023/08/05 02:53:21;;;;;;;5.77;2.83;;;12.80;99.90;;;;;;5015765;28;20264;-80
2023/08/05 02:55:47;;;;;;;8.20;2.80;;;12.90;99.90;;;;;;5015774;28;20221;-81
2023/08/05 02:58:15;;;;;;;5.60;2.87;;;12.80;99.90;;;;;;5015753;28;20177;-81
2023/08/05 03:00:41;;;;;;;8.87;3.30;;;12.80;99.90;;;;;;5015269;28;20279;-81
2023/08/05 03:03:10;;;;;;;3.37;2.90;;;12.80;99.90;;;;;;5016566;28;20232;-81
2023/08/05 03:05:36;;;;;;;9.53;3.30;;;12.70;99.90;;;;;;5016349;28;20180;-80
2023/08/05 03:08:02;;;;;;;3.90;3.30;;;12.70;99.90;;;;;;5015860;28;20243;-81
2023/08/05 03:10:28;;;;;;;8.57;3.37;;;12.70;99.90;;;;;;5015615;28;20204;-82
2023/08/05 03:12:53;;;;;;;11.43;3.30;;;12.70;99.90;;;;;;5016060;28;20235;-81
2023/08/05 03:15:19;;;;;;;4.50;3.37;;;12.70;99.90;;;;;;5016836;28;20169;-80
2023/08/05 03:17:44;;;;;;;3.30;2.60;;;12.60;99.90;;;;;;5016130;28;20176;-81
2023/08/05 03:20:28;;;;;;;10.40;3.00;;;12.70;99.90;;;;;;5015505;28;20193;-81
2023/08/05 03:22:54;;;;;;;6.83;2.90;;;12.70;99.90;;;;;;5014195;28;20282;-81
2023/08/05 03:25:21;;;;;;;12.17;3.73;;;12.60;99.90;;;;;;5017046;28;20169;-81
2023/08/05 03:27:51;;;;;;;10.17;2.83;;;12.60;99.90;;;;;;5015801;28;20195;-81
2023/08/05 03:30:17;;;;;;;10.47;3.00;;;12.60;99.90;;;;;;5016611;28;20584;-81
2023/08/05 03:32:43;;;;;;;4.30;2.70;;;12.50;99.90;;;;;;5014778;28;20189;-81
2023/08/05 03:35:09;;;;;;;12.10;3.10;;;12.60;99.90;;;;;;5015088;28;20201;-81
2023/08/05 03:37:34;;;;;;;12.00;2.57;;;12.50;99.90;;;;;;5016723;28;20181;-81
2023/08/05 03:40:00;;;;;;;6.73;2.73;;;12.50;99.90;;;;;;5016053;28;20547;-81
2023/08/05 03:42:25;;;;;;;7.60;2.57;;;12.40;99.90;;;;;;5015561;28;20191;-81
2023/08/05 03:44:51;;;;;;;6.73;2.93;;;12.40;99.90;;;;;;5015678;28;20552;-81
2023/08/05 03:47:17;;;;;;;7.03;2.73;;;12.40;99.90;;;;;;5016664;28;20204;-81
2023/08/05 03:49:42;;;;;;;8.30;2.40;;;12.40;99.90;;;;;;5015049;28;20269;-80
2023/08/05 03:52:09;;;;;;;6.83;2.83;;;12.30;99.90;;;;;;5014441;28;20242;-81
2023/08/05 03:54:34;;;;;;;7.60;2.50;;;12.30;99.90;;;;;;5015029;28;20231;-81
2023/08/05 03:57:00;;;;;;;3.70;2.47;;;12.20;99.90;;;;;;5014490;28;20173;-81
2023/08/05 03:59:25;;;;;;;6.00;2.50;;;12.20;99.90;;;;;;5014604;28;20184;-81
2023/08/05 04:01:52;;;;;;;6.37;2.87;;;12.30;99.90;;;;;;5015982;28;20196;-81
2023/08/05 04:04:17;;;;;;;8.37;2.30;;;12.20;99.90;;;;;;5014394;28;20591;-81
2023/08/05 04:06:45;;;;;;;6.83;2.47;;;12.20;99.90;;;;;;5016142;28;20169;-81
2023/08/05 04:09:10;;;;;;;4.63;2.50;;;12.30;99.90;;;;;;5016583;28;20189;-81
2023/08/05 04:11:37;;;;;;;8.23;2.90;;;12.30;99.90;;;;;;5015905;28;20191;-81
2023/08/05 04:14:03;;;;;;;4.37;2.43;;;12.30;99.90;;;;;;5014631;28;20169;-81
2023/08/05 04:16:30;;;;;;;5.13;2.53;;;12.30;99.90;;;;;;5014353;28;20242;-81
2023/08/05 04:18:57;;;;;;;6.57;2.57;;;12.40;99.90;;;;;;5014304;28;20675;-81
2023/08/05 04:21:27;;;;;;;7.13;2.50;;;12.30;99.90;;;;;;5014081;28;20193;-80
2023/08/05 04:23:54;;;;;;;8.23;2.80;;;12.40;99.90;;;;;;5014356;28;20176;-81
2023/08/05 04:26:20;;;;;;;4.87;2.93;;;12.40;99.90;;;;;;5013023;28;20180;-81
2023/08/05 04:28:45;;;;;;;7.43;3.33;;;12.30;99.90;;;;;;5014269;28;20172;-81
2023/08/05 04:31:11;;;;;;;6.13;3.27;;;12.40;99.90;;;;;;5015175;28;20243;-81
2023/08/05 04:33:37;;;;;;;12.53;3.40;;;12.40;99.90;;;;;;5014217;28;20275;-81
2023/08/05 04:36:02;;;;;;;6.30;3.00;;;12.40;99.90;;;;;;5013995;28;20244;-81
2023/08/05 04:38:28;;;;;;;13.13;4.03;;;12.40;99.90;;;;;;5014805;28;20641;-81
2023/08/05 04:40:54;;;;;;;5.40;2.97;;;12.40;99.90;;;;;;5015157;28;20205;-81
2023/08/05 04:43:19;;;;;;;9.97;3.03;;;12.50;99.90;;;;;;5015538;28;20181;-81
2023/08/05 04:45:50;;;;;;;7.80;3.10;;;12.30;99.90;;;;;;5012396;28;20736;-81
2023/08/05 04:48:15;;;;;;;8.70;3.70;;;12.30;99.90;;;;;;5014548;28;20494;-81
2023/08/05 04:50:41;;;;;;;6.27;3.27;;;12.30;99.90;;;;;;5015236;28;20211;-81
2023/08/05 04:53:06;;;;;;;6.73;3.33;;;12.40;99.90;;;;;;5015579;28;20537;-81
2023/08/05 04:55:32;;;;;;;3.90;3.07;;;12.40;99.90;;;;;;5013154;28;20714;-81
2023/08/05 04:57:58;;;;;;;7.10;3.77;;;12.40;99.90;;;;;;5015572;28;20208;-81
2023/08/05 05:00:25;;;;;;;5.50;3.33;;;12.50;99.90;;;;;;5013863;28;20203;-81
2023/08/05 05:02:51;;;;;;;13.47;4.00;;;12.50;99.90;;;;;;5014237;28;20257;-81
2023/08/05 05:05:16;;;;;;;5.63;3.60;;;12.50;99.90;;;;;;5012700;28;20196;-81
2023/08/05 05:07:42;;;;;;;6.97;3.27;;;12.60;99.90;;;;;;5010530;28;20176;-81
2023/08/05 05:10:08;;;;;;;4.57;3.87;;;12.70;99.90;;;;;;5013298;28;20208;-81
2023/08/05 05:12:33;;;;;;;7.63;3.70;;;12.70;99.90;;;;;;5014893;28;20180;-81
2023/08/05 05:14:59;;;;;;;7.43;4.27;;;12.70;99.90;;;;;;5015189;28;20173;-81
2023/08/05 05:17:24;;;;;;;5.77;3.63;;;12.80;99.90;;;;;;5015886;28;20185;-81
2023/08/05 05:19:50;;;;;;;7.23;3.90;;;12.90;99.90;;;;;;5012835;28;20184;-81
2023/08/05 05:22:17;;;;;;;8.00;4.67;;;12.90;99.90;;;;;;5014897;28;20185;-81
2023/08/05 05:24:43;;;;;;;11.60;4.90;;;13.00;99.90;;;;;;5014204;28;20191;-81
2023/08/05 05:27:09;;;;;;;13.20;5.10;;;13.00;99.90;;;;;;5015900;28;20184;-81
2023/08/05 05:29:35;;;;;;;11.20;3.90;;;13.00;99.90;;;;;;5027224;28;20251;-81
2023/08/05 05:32:00;;;;;;;6.43;4.50;;;13.10;99.90;;;;;;5028724;28;20209;-81
2023/08/05 05:34:26;;;;;;;5.53;4.40;;;13.20;99.90;;;;;;5013958;28;20188;-81
2023/08/05 05:36:52;;;;;;;7.43;4.70;;;13.20;99.90;;;;;;5014058;28;20617;-81
2023/08/05 05:39:17;;;;;;;11.03;5.33;;;13.30;99.90;;;;;;5015588;28;20181;-81
2023/08/05 05:41:43;;;;;;;14.20;5.70;;;13.30;99.90;;;;;;5018461;28;20201;-81
2023/08/05 05:44:08;;;;;;;13.13;6.63;;;13.40;99.90;;;;;;5015410;28;20275;-80
2023/08/05 05:46:34;;;;;;;9.20;7.53;;;13.40;99.90;;;;;;5015958;28;20189;-81
2023/08/05 05:49:01;;;;;;;11.40;7.93;;;13.50;99.90;;;;;;5018586;28;20591;-81
2023/08/05 05:51:26;;;;;;;12.47;8.93;;;13.50;99.90;;;;;;5018409;28;20181;-81
2023/08/05 05:53:52;;;;;;;13.20;9.57;;;13.60;99.90;;;;;;5017726;28;20232;-81
2023/08/05 05:56:18;;;;;;;14.80;10.03;;;13.70;99.90;;;;;;5017871;28;20711;-81
2023/08/05 05:58:43;;;;;;;17.60;11.60;;;13.80;99.90;;;;;;5017560;28;20177;-81
2023/08/05 06:01:09;;;;;;;13.80;10.37;;;13.90;99.90;;;;;;5018611;28;20193;-81
2023/08/05 06:03:34;;;;;;;11.90;8.97;;;13.90;99.90;;;;;;5018589;28;20597;-81
2023/08/05 06:06:01;;;;;;;14.17;10.47;;;14.00;99.90;;;;;;5016348;28;20272;-81
2023/08/05 06:08:29;;;;;;;16.63;10.80;;;14.10;99.90;;;;;;5018525;28;20180;-81
2023/08/05 06:10:56;;;;;;;17.27;11.67;;;14.20;99.90;;;;;;5015619;28;20217;-80
2023/08/05 06:13:21;;;;;;;22.40;11.17;;;14.30;99.90;;;;;;5018963;28;20204;-81
2023/08/05 06:15:47;;;;;;;14.10;11.27;;;14.30;99.90;;;;;;5018919;28;20165;-81
2023/08/05 06:18:13;;;;;;;21.87;12.37;;;14.40;99.90;;;;;;5018479;28;20173;-81
2023/08/05 06:20:38;;;;;;;18.80;12.10;;;14.40;99.90;;;;;;5016740;28;20201;-81
2023/08/05 06:23:06;;;;;;;13.97;11.77;;;14.50;99.90;;;;;;5016968;28;20220;-81
2023/08/05 06:25:32;;;;;;;19.50;12.97;;;14.50;99.90;;;;;;5018644;28;20177;-81
2023/08/05 06:27:57;;;;;;;22.43;13.07;;;14.60;99.90;;;;;;5018859;28;20488;-82
2023/08/05 06:30:23;;;;;;;18.80;12.70;;;14.60;99.90;;;;;;5018737;28;20251;-81
2023/08/05 06:32:49;;;;;;;19.70;13.53;;;14.70;99.90;;;;;;5017094;28;20653;-81
2023/08/05 06:35:14;;;;;;;21.57;16.33;;;14.80;99.90;;;;;;5016667;28;20203;-81
2023/08/05 06:37:40;;;;;;;25.90;17.30;;;14.80;99.90;;;;;;5016222;28;20181;-81
2023/08/05 06:40:06;;;;;;;28.20;17.97;;;14.90;99.90;;;;;;5016146;28;20344;-81
2023/08/05 06:42:31;;;;;;;28.70;17.67;;;14.90;99.90;;;;;;5012413;28;20192;-81
2023/08/05 06:44:57;;;;;;;21.73;16.17;;;14.90;99.90;;;;;;5017792;28;20169;-81
2023/08/05 06:47:22;;;;;;;23.20;17.10;;;15.00;99.90;;;;;;5019072;28;20633;-81
2023/08/05 06:49:49;;;;;;;32.43;16.73;;;15.00;99.90;;;;;;5017825;28;20271;-82
2023/08/05 06:52:14;;;;;;;19.77;15.70;;;15.10;99.90;;;;;;5014708;28;20203;-82
2023/08/05 06:54:40;;;;;;;22.57;15.90;;;15.10;99.90;;;;;;5017026;28;20672;-81
2023/08/05 06:57:06;;;;;;;19.97;15.67;;;15.10;99.90;;;;;;5017841;28;20593;-81
2023/08/05 06:59:33;;;;;;;19.90;15.70;;;15.20;99.90;;;;;;5017881;28;20527;-82
2023/08/05 07:02:00;;;;;;;23.63;16.10;;;15.30;99.90;;;;;;5015390;28;20246;-81
2023/08/05 07:04:26;;;;;;;24.83;14.90;;;15.40;99.90;;;;;;5016178;28;20556;-81
2023/08/05 07:06:51;;;;;;;18.13;14.50;;;15.50;99.90;;;;;;5016492;28;20177;-81
2023/08/05 07:09:17;;;;;;;20.70;14.63;;;15.40;99.90;;;;;;5016220;28;20724;-81
2023/08/05 07:11:42;;;;;;;18.87;15.70;;;15.40;99.90;;;;;;5016197;28;20284;-81
2023/08/05 07:14:08;;;;;;;20.73;15.17;;;15.40;99.90;;;;;;5016348;28;20233;-81
2023/08/05 07:16:33;;;;;;;19.13;15.50;;;15.50;99.90;;;;;;5017938;28;20169;-81
2023/08/05 07:18:59;;;;;;;20.37;14.83;;;15.50;99.90;;;;;;5018236;28;20180;-82
2023/08/05 07:21:24;;;;;;;22.73;17.60;;;15.60;99.90;;;;;;5015639;28;20207;-81
2023/08/05 07:23:50;;;;;;;26.37;18.10;;;15.60;99.90;;;;;;5017559;28;20172;-82
2023/08/05 07:26:16;;;;;;;24.83;17.30;;;15.60;99.90;;;;;;5016791;28;20638;-82
2023/08/05 07:28:42;;;;;;;21.67;18.27;;;15.70;99.90;;;;;;5017206;28;20169;-82
2023/08/05 07:31:10;;;;;;;23.70;18.73;;;15.70;99.90;;;;;;5015380;28;20197;-81
2023/08/05 07:33:36;;;;;;;25.87;19.43;;;15.70;99.90;;;;;;5017372;28;20176;-81
2023/08/05 07:36:09;;;;;;;24.50;19.43;;;15.80;99.90;;;;;;5017393;28;20235;-81
2023/08/05 07:38:38;;;;;;;26.57;18.77;;;15.80;99.90;;;;;;5017206;28;20184;-81
2023/08/05 07:41:04;;;;;;;24.97;18.13;;;15.90;99.90;;;;;;5014078;28;20220;-81
2023/08/05 07:43:32;;;;;;;21.00;18.63;;;16.00;99.90;;;;;;5017100;28;20188;-81
2023/08/05 07:45:59;;;;;;;26.43;18.57;;;16.00;99.90;;;;;;5014785;28;20199;-81
2023/08/05 07:48:26;;;;;;;23.00;16.80;;;16.10;99.90;;;;;;5018566;28;20165;-81
2023/08/05 07:50:51;;;;;;;15.83;14.10;;;16.00;99.90;;;;;;5034369;28;20196;-81
2023/08/05 07:53:20;;;;;;;16.73;13.13;;;16.00;99.90;;;;;;5031853;28;20177;-82
2023/08/05 07:55:46;;;;;;;16.27;13.77;;;16.00;99.90;;;;;;5015993;28;20181;-81
2023/08/05 07:58:12;;;;;;;15.00;12.87;;;16.00;99.90;;;;;;5017264;28;20181;-81
2023/08/05 08:00:40;;;;;;;20.70;14.40;;;16.00;99.90;;;;;;5015003;28;20273;-81
2023/08/05 08:03:06;;;;;;;19.50;15.20;;;16.00;99.90;;;;;;5014817;28;20177;-81
2023/08/05 08:05:31;;;;;;;22.63;15.57;;;16.10;99.90;;;;;;5014874;28;20600;-81
2023/08/05 08:07:57;;;;;;;22.07;17.97;;;16.10;99.90;;;;;;5017092;28;20184;-81
2023/08/05 08:10:25;;;;;;;25.20;19.33;;;16.30;99.90;;;;;;5016206;28;20266;-81
2023/08/05 08:12:51;;;;;;;23.63;19.23;;;16.40;99.90;;;;;;5015099;28;20564;-82
2023/08/05 08:15:17;;;;;;;23.93;18.47;;;16.50;99.90;;;;;;5015977;28;20192;-81
2023/08/05 08:17:43;;;;;;;19.90;17.70;;;16.60;99.90;;;;;;5017342;28;20173;-81
2023/08/05 08:20:09;;;;;;;22.10;18.23;;;16.80;99.90;;;;;;5015618;28;20204;-81
2023/08/05 08:22:34;;;;;;;21.30;15.97;;;16.90;99.90;;;;;;5014892;28;20250;-81
2023/08/05 08:25:00;;;;;;;19.50;15.20;;;17.00;99.90;;;;;;5013201;28;20212;-81
2023/08/05 08:27:26;;;;;;;16.37;12.83;;;17.00;99.90;;;;;;5015396;28;20526;-80
2023/08/05 08:29:51;;;;;;;14.07;11.17;;;17.20;99.90;;;;;;5016568;28;20220;-81
2023/08/05 08:32:17;;;;;;;12.90;11.47;;;17.10;99.90;;;;;;5015339;28;20708;-81
2023/08/05 08:34:42;;;;;;;13.60;10.87;;;17.30;99.90;;;;;;5015282;28;20268;-81
2023/08/05 08:37:08;;;;;;;16.60;11.37;;;17.20;99.90;;;;;;5015937;28;20165;-81
2023/08/05 08:39:33;;;;;;;13.20;9.93;;;17.20;99.90;;;;;;5015168;28;20177;-81
2023/08/05 08:41:59;;;;;;;10.37;8.73;;;17.30;99.90;;;;;;5015429;28;20498;-81
2023/08/05 08:44:27;;;;;;;12.30;8.63;;;17.20;99.90;;;;;;5015214;28;20191;-82
2023/08/05 08:46:53;;;;;;;10.27;8.90;;;17.40;99.90;;;;;;5015833;28;20201;-81
2023/08/05 08:49:20;;;;;;;15.43;10.63;;;17.50;99.90;;;;;;5017452;28;20747;-82
2023/08/05 08:51:50;;;;;;;8.87;7.70;;;17.60;99.90;;;;;;5034138;28;20227;-81
2023/08/05 08:54:17;;;;;;;8.13;5.70;;;17.70;99.90;;;;;;5035935;28;20204;-81
2023/08/05 08:56:42;;;;;;;7.07;5.50;;;17.80;99.90;;;;;;5036420;28;20173;-81
2023/08/05 08:59:08;;;;;;;7.50;5.80;;;17.90;99.90;;;;;;5033383;28;20204;-81
2023/08/05 09:01:39;;;;;;;9.33;6.20;;;17.90;99.90;;;;;;5032643;28;20231;-81
2023/08/05 09:04:06;;;;;;;6.47;5.27;;;17.90;99.90;;;;;;5032512;28;20165;-82
2023/08/05 09:06:32;;;;;;;6.47;5.27;;;18.00;99.90;;;;;;5034971;28;20161;-81
2023/08/05 09:08:58;;;;;;;6.63;6.00;;;18.00;99.90;;;;;;5034814;28;20187;-80
2023/08/05 09:11:23;;;;;;;7.83;5.73;;;18.10;99.90;;;;;;5034526;28;20216;-80
2023/08/05 09:13:52;;;;;;;6.97;5.23;;;18.10;99.90;;;;;;5033833;28;20191;-81
2023/08/05 09:16:17;;;;;;;7.97;5.87;;;18.10;99.90;;;;;;5037251;28;20164;-82
2023/08/05 09:18:53;;;;;;;8.70;6.40;;;18.20;99.90;;;;;;5037348;28;20208;-81
2023/08/05 09:21:22;;;;;;;8.53;6.17;;;18.20;99.90;;;;;;5019172;28;20192;-81
2023/08/05 09:23:48;;;;;;;10.40;6.33;;;18.40;99.90;;;;;;5017850;28;20180;-80
2023/08/05 09:26:13;;;;;;;7.07;5.90;;;18.40;99.90;;;;;;5016944;28;20590;-81
2023/08/05 09:28:39;;;;;;;8.80;5.80;;;18.60;99.90;;;;;;5016964;28;20522;-81
2023/08/05 09:31:12;;;;;;;6.20;4.40;;;18.70;99.90;;;;;;5017615;28;20215;-80
2023/08/05 09:33:39;;;;;;;5.60;4.73;;;18.80;99.90;;;;;;5016182;28;20176;-81
2023/08/05 09:36:13;;;;;;;7.40;4.50;;;18.80;99.90;;;;;;5015962;28;20268;-81
2023/08/05 09:38:39;;;;;;;5.33;4.00;;;18.90;99.90;;;;;;5018155;28;20176;-81
2023/08/05 09:41:07;;;;;;;9.47;3.83;;;18.90;99.90;;;;;;5018037;28;20196;-81
2023/08/05 09:43:35;;;;;;;5.63;3.30;;;18.90;99.90;;;;;;5016316;28;20203;-81
2023/08/05 09:46:04;;;;;;;5.63;3.73;;;19.00;99.90;;;;;;5015117;28;20189;-81
2023/08/05 09:48:38;;;;;;;6.10;3.33;;;19.00;99.90;;;;;;5016563;28;20264;-81
2023/08/05 09:51:06;;;;;;;5.37;3.50;;;19.10;99.90;;;;;;5018200;28;20311;-81
2023/08/05 09:53:34;;;;;;;6.30;3.17;;;19.10;99.90;;;;;;5017915;28;20188;-81
2023/08/05 09:55:59;;;;;;;4.50;3.17;;;19.20;99.90;;;;;;5017876;28;20173;-81
2023/08/05 09:58:26;;;;;;;6.13;2.87;;;19.10;99.90;;;;;;5018211;28;20239;-81
2023/08/05 10:00:51;;;;;;;3.67;2.83;;;19.30;99.90;;;;;;5015510;28;20213;-81
2023/08/05 10:03:19;;;;;;;6.77;2.47;;;19.40;99.90;;;;;;5016805;28;20224;-81
2023/08/05 10:05:45;;;;;;;3.27;2.73;;;19.40;99.90;;;;;;5017831;28;20181;-81
2023/08/05 10:08:19;;;;;;;4.00;2.60;;;19.40;99.90;;;;;;5018901;28;20183;-81
2023/08/05 10:10:47;;;;;;;4.27;2.70;;;19.40;99.90;;;;;;5028628;28;20207;-81
2023/08/05 10:13:17;;;;;;;5.80;2.97;;;19.40;99.90;;;;;;5025048;28;20231;-81
2023/08/05 10:15:47;;;;;;;3.53;2.63;;;19.50;99.90;;;;;;5015505;28;20173;-81
2023/08/05 10:18:15;;;;;;;5.27;2.60;;;19.40;99.90;;;;;;5017783;28;20184;-81
2023/08/05 10:20:41;;;;;;;3.53;2.53;;;19.30;99.90;;;;;;5016665;28;20611;-81
2023/08/05 10:23:13;;;;;;;3.50;2.40;;;19.30;99.90;;;;;;5015998;28;20176;-81
2023/08/05 10:25:46;;;;;;;5.83;3.10;;;19.30;99.90;;;;;;5017096;28;20249;-82
2023/08/05 10:28:23;;;;;;;6.00;3.13;;;19.50;99.90;;;;;;5017511;28;20613;-81
2023/08/05 10:30:49;;;;;;;2.80;2.57;;;19.50;99.90;;;;;;5017221;28;20580;-81
2023/08/05 10:33:18;;;;;;;5.27;2.57;;;19.50;99.90;;;;;;5014623;28;20208;-81
2023/08/05 10:35:44;;;;;;;4.23;3.00;;;19.50;99.90;;;;;;5016455;28;20568;-81
2023/08/05 10:38:20;;;;;;;3.33;2.40;;;19.60;99.90;;;;;;5016098;28;20173;-81
2023/08/05 10:40:50;;;;;;;2.83;2.43;;;19.70;99.90;;;;;;5014678;28;20254;-81
2023/08/05 10:43:33;;;;;;;3.40;2.40;;;19.70;99.90;;;;;;5016507;28;20560;-82
2023/08/05 10:46:07;;;;;;;6.23;2.40;;;19.80;99.90;;;;;;5017098;28;20540;-81
2023/08/05 10:48:39;;;;;;;2.93;2.57;;;19.90;99.90;;;;;;5015269;28;20177;-82
2023/08/05 10:51:19;;;;;;;3.90;2.20;;;19.90;99.90;;;;;;4997165;28;20587;-82
2023/08/05 10:53:51;;;;;;;3.23;2.63;;;19.80;99.90;;;;;;4996116;28;20522;-82
2023/08/05 10:56:17;;;;;;;2.33;2.13;;;19.90;99.90;;;;;;4997864;28;20201;-81
2023/08/05 10:58:48;;;;;;;4.43;2.43;;;19.90;99.90;;;;;;4997355;28;20178;-82
2023/08/05 11:01:14;;;;;;;4.03;2.47;;;19.70;99.90;;;;;;4997551;28;20276;-81
2023/08/05 11:03:45;;;;;;;3.00;2.60;;;19.90;99.90;;;;;;4997339;28;20212;-82
2023/08/05 11:06:12;;;;;;;3.43;2.50;;;20.00;99.90;;;;;;5003986;28;20185;-82
2023/08/05 11:08:39;;;;;;;4.50;2.40;;;20.00;99.90;;;;;;5017097;28;20168;-82
2023/08/05 11:11:05;;;;;;;3.03;2.10;;;20.00;99.90;;;;;;5015496;28;20204;-82
2023/08/05 11:13:36;;;;;;;3.53;2.30;;;20.10;99.90;;;;;;5017194;28;20197;-82
2023/08/05 11:16:08;;;;;;;2.23;2.03;;;20.10;99.90;;;;;;5016848;28;20256;-81
2023/08/05 11:18:34;;;;;;;3.67;2.00;;;20.20;99.90;;;;;;5016896;28;20252;-82
2023/08/05 11:21:02;;;;;;;2.83;2.10;;;20.20;99.90;;;;;;5017082;28;20223;-82
2023/08/05 11:23:28;;;;;;;2.63;2.20;;;20.00;99.90;;;;;;5014661;28;20215;-82
2023/08/05 11:25:54;;;;;;;2.80;2.20;;;20.10;99.90;;;;;;5017077;28;20173;-82
2023/08/05 11:28:21;;;;;;;2.30;2.10;;;20.00;1.00;;;;;;5016265;28;20196;-82
2023/08/05 11:30:47;;;;;;;3.10;2.10;;;19.90;50.40;;;;;;5016635;28;20232;-82
2023/08/05 11:33:12;;;;;;;3.90;2.53;;;19.80;1.00;;;;;;5020601;28;20173;-82
2023/08/05 11:35:46;;;;;;;2.83;2.03;;;19.70;99.90;;;;;;5016552;28;20208;-82
2023/08/05 11:38:16;;;;;;;3.17;2.23;;;19.50;1.00;;;;;;5016056;28;20177;-82
2023/08/05 11:40:44;;;;;;;3.17;2.20;;;19.60;99.90;;;;;;5015195;28;20553;-82
2023/08/05 11:43:11;;;;;;;2.23;2.07;;;19.50;1.00;;;;;;5017759;28;20184;-82
2023/08/05 11:45:40;;;;;;;3.07;2.20;;;19.40;1.00;;;;;;5016789;28;20192;-83
2023/08/05 11:48:38;;;;;;;2.40;2.00;;;19.40;1.00;;;;;;5020629;28;20169;-82
2023/08/05 11:51:05;;;;;;;2.40;2.10;;;19.40;99.90;;;;;;5015959;28;20266;-82
2023/08/05 11:53:30;;;;;;;2.67;2.00;;;19.40;1.00;;;;;;5037076;28;20161;-81
2023/08/05 11:55:56;;;;;;;2.73;2.00;;;19.60;1.00;;;;;;5037131;28;20190;-81
2023/08/05 11:58:26;;;;;;;2.00;1.80;;;19.60;99.90;;;;;;5034887;28;20204;-81
2023/08/05 12:00:57;;;;;;;2.53;2.17;;;19.90;99.90;;;;;;5036352;28;20193;-82
2023/08/05 12:03:22;;;;;;;2.77;1.77;;;19.90;99.90;;;;;;5035962;28;20154;-82
2023/08/05 12:05:48;;;;;;;3.27;2.17;;;20.00;57.60;;;;;;5017833;28;20619;-81
2023/08/05 12:08:38;;;;;;;3.50;1.90;;;20.20;99.90;;;;;;5015839;28;20645;-81
2023/08/05 12:11:04;;;;;;;6.83;2.07;;;20.40;99.90;;;;;;5015707;28;20204;-82
2023/08/05 12:13:34;;;;;;;3.30;1.50;;;20.50;99.90;;;;;;5014543;28;20269;-82
2023/08/05 12:15:59;;;;;;;3.27;1.57;;;20.50;99.90;;;;;;5014320;28;20177;-82
2023/08/05 12:18:25;;;;;;;1.60;1.43;;;20.70;1.00;;;;;;5016111;28;20243;-82
2023/08/05 12:20:51;;;;;;;3.60;1.80;;;20.70;1.00;;;;;;5015671;28;20199;-82
2023/08/05 12:23:16;;;;;;;2.43;1.77;;;20.90;1.00;;;;;;5015483;28;20177;-83
2023/08/05 12:25:42;;;;;;;1.50;1.40;;;21.10;1.00;;;;;;5017348;28;20177;-82
2023/08/05 12:28:07;;;;;;;3.47;1.70;;;21.30;1.00;;;;;;5026099;28;20189;-82
2023/08/05 12:30:33;;;;;;;2.43;2.00;;;21.10;1.00;;;;;;5019132;28;20247;-82
2023/08/05 12:32:58;;;;;;;4.93;1.93;;;20.90;99.90;;;;;;5013291;28;20227;-82
2023/08/05 12:35:25;;;;;;;3.63;1.40;;;21.10;99.90;;;;;;5014834;28;20272;-82
2023/08/05 12:37:50;;;;;;;1.70;1.30;;;21.00;99.90;;;;;;5013833;28;20176;-82
2023/08/05 12:40:16;;;;;;;2.23;1.40;;;20.90;1.00;;;;;;5014651;28;20212;-81